Time;durP1;ratioP1;P1;durP2;ratioP2;P2;SDS_P1;SDS_P2;PMS_P1;PMS_P2;Temp;Humidity;BMP_temperature;BMP_pressure;BME280_temperature;BME280_humidity;BME280_pressure;Samples;Min_cycle;Max_cycle;Signal;HPM_P1;HPM_P2
2024/02/13 00:00:10;;;;;;;;;0.00;0.00;;;;;7.95;100.00;101461.09;5077169;28;45281;-80
2024/02/13 00:02:36;;;;;;;;;0.00;0.00;;;;;7.93;100.00;101475.75;5077545;27;45526;-80
2024/02/13 00:05:02;;;;;;;;;0.00;0.00;;;;;7.94;100.00;101477.50;5075880;28;45458;-80
2024/02/13 00:07:28;;;;;;;;;0.00;0.00;;;;;7.93;100.00;101480.94;5077436;27;45344;-79
2024/02/13 00:09:54;;;;;;;;;0.00;0.00;;;;;7.90;100.00;101480.97;5076460;28;45390;-80
2024/02/13 00:12:19;;;;;;;;;0.00;0.00;;;;;7.88;100.00;101482.72;5077285;28;45616;-79
2024/02/13 00:14:46;;;;;;;;;0.00;0.00;;;;;7.86;100.00;101480.13;5074964;28;59889;-79
2024/02/13 00:17:12;;;;;;;;;0.00;0.00;;;;;7.86;100.00;101487.06;5077214;28;45500;-79
2024/02/13 00:19:37;;;;;;;;;0.00;0.00;;;;;7.86;100.00;101480.13;5077532;28;45416;-79
2024/02/13 00:22:04;;;;;;;;;0.00;0.00;;;;;7.83;100.00;101484.47;5075016;28;70050;-79
2024/02/13 00:24:33;;;;;;;;;4.50;4.50;;;;;7.83;100.00;101484.47;5076324;27;46371;-79
2024/02/13 00:26:59;;;;;;;;;0.00;0.00;;;;;7.82;100.00;101487.91;5075751;28;45433;-79
2024/02/13 00:29:24;;;;;;;;;0.00;0.00;;;;;7.81;100.00;101494.00;5076796;27;45333;-79
2024/02/13 00:31:50;;;;;;;;;0.00;0.00;;;;;7.79;100.00;101486.22;5075993;27;68377;-79
2024/02/13 00:34:19;;;;;;;;;1.00;1.00;;;;;7.73;100.00;101486.25;5075353;28;47145;-79
2024/02/13 00:36:47;;;;;;;;;0.00;0.00;;;;;7.72;100.00;101490.56;5076763;27;45420;-79
2024/02/13 00:39:13;;;;;;;;;0.00;0.00;;;;;7.72;100.00;101498.34;5078192;27;45489;-79
2024/02/13 00:41:41;;;;;;;;;0.00;0.00;;;;;7.70;100.00;101492.31;5077174;27;45472;-80
2024/02/13 00:44:06;;;;;;;;;0.00;0.00;;;;;7.70;100.00;101497.47;5075149;28;46502;-79
2024/02/13 00:46:31;;;;;;;;;0.00;0.00;;;;;7.66;100.00;101503.56;5076942;28;45291;-79
2024/02/13 00:48:57;;;;;;;;;0.00;0.00;;;;;7.66;100.00;101500.97;5076694;28;45585;-79
2024/02/13 00:51:22;;;;;;;;;1.00;1.00;;;;;7.63;100.00;101508.75;5077017;28;45445;-79
2024/02/13 00:53:48;;;;;;;;;0.00;0.00;;;;;7.61;100.00;101499.25;5076627;27;45776;-79
2024/02/13 00:56:13;;;;;;;;;0.00;0.00;;;;;7.58;100.00;101497.56;5075585;28;45265;-79
2024/02/13 00:58:43;;;;;;;;;0.00;0.00;;;;;7.58;100.00;101500.16;5075689;28;59481;-79
2024/02/13 01:01:08;;;;;;;;;0.00;0.00;;;;;7.55;100.00;101498.41;5076395;28;45249;-79
2024/02/13 01:03:34;;;;;;;;;0.00;0.00;;;;;7.56;100.00;101501.88;5075620;27;75353;-79
2024/02/13 01:05:59;;;;;;;;;0.00;0.00;;;;;7.54;100.00;101503.59;5076202;27;45314;-79
2024/02/13 01:08:25;;;;;;;;;0.00;0.00;;;;;7.53;100.00;101497.56;5075781;28;65562;-79
2024/02/13 01:10:51;;;;;;;;;0.00;0.00;;;;;7.54;100.00;101495.81;5076429;28;45475;-79
2024/02/13 01:13:17;;;;;;;;;0.00;0.00;;;;;7.55;100.00;101495.81;5075642;28;46453;-79
2024/02/13 01:15:42;;;;;;;;;0.00;0.00;;;;;7.52;100.00;101492.38;5076161;27;45356;-79
2024/02/13 01:18:07;;;;;;;;;0.00;0.00;;;;;7.52;100.00;101490.69;5074140;28;67134;-79
2024/02/13 01:20:33;;;;;;;;;0.00;0.00;;;;;7.50;100.00;101502.78;5076456;28;45341;-80
2024/02/13 01:22:58;;;;;;;;;0.00;0.00;;;;;7.47;100.00;101502.78;5074717;28;45370;-80
2024/02/13 01:25:25;;;;;;;;;0.00;0.00;;;;;7.47;100.00;101507.09;5075845;27;45345;-79
2024/02/13 01:27:50;;;;;;;;;0.00;0.00;;;;;7.46;100.00;101518.31;5076129;27;45438;-79
2024/02/13 01:30:16;;;;;;;;;0.00;0.00;;;;;7.45;100.00;101506.25;5076433;28;45332;-80
2024/02/13 01:32:41;;;;;;;;;0.00;0.00;;;;;7.42;100.00;101512.28;5076166;28;45432;-80
2024/02/13 01:35:07;;;;;;;;;0.00;0.00;;;;;7.41;100.00;101507.09;5075216;28;70179;-79
2024/02/13 01:37:33;;;;;;;;;0.00;0.00;;;;;7.41;100.00;101515.75;5076048;28;45359;-80
2024/02/13 01:39:59;;;;;;;;;0.00;0.00;;;;;7.43;100.00;101514.03;5076109;27;45301;-80
2024/02/13 01:42:25;;;;;;;;;0.00;0.00;;;;;7.42;100.00;101514.88;5075584;27;47002;-80
2024/02/13 01:44:53;;;;;;;;;0.00;0.00;;;;;7.41;100.00;101518.34;5074534;28;45382;-80
2024/02/13 01:47:19;;;;;;;;;0.00;0.00;;;;;7.38;100.00;101514.91;5076058;27;45241;-82
2024/02/13 01:49:44;;;;;;;;;0.00;0.00;;;;;7.33;100.00;101520.94;5074582;28;45254;-79
2024/02/13 01:52:10;;;;;;;;;0.00;0.00;;;;;7.32;100.00;101516.66;5074666;28;75400;-78
2024/02/13 01:54:35;;;;;;;;;0.00;0.00;;;;;7.32;100.00;101511.47;5074864;28;73149;-79
2024/02/13 01:57:02;;;;;;;;;0.00;0.00;;;;;7.33;100.00;101509.72;5074382;28;45312;-79
2024/02/13 01:59:29;;;;;;;;;0.00;0.00;;;;;7.33;100.00;101512.31;5075967;27;45545;-79
2024/02/13 02:01:55;;;;;;;;;0.00;0.00;;;;;7.32;100.00;101523.56;5073319;28;75665;-81
2024/02/13 02:04:20;;;;;;;;;0.00;0.00;;;;;7.32;100.00;101516.66;5074342;28;45397;-79
2024/02/13 02:06:49;;;;;;;;;0.00;0.00;;;;;7.28;100.00;101520.13;5073700;28;69287;-79
2024/02/13 02:09:14;;;;;;;;;0.00;0.00;;;;;7.25;100.00;101520.13;5075781;27;45318;-79
2024/02/13 02:11:40;;;;;;;;;0.00;0.00;;;;;7.25;100.00;101516.66;5075260;28;45355;-80
2024/02/13 02:14:06;;;;;;;;;0.00;0.00;;;;;7.23;100.00;101519.25;5073989;28;71995;-79
2024/02/13 02:16:31;;;;;;;;;0.00;0.00;;;;;7.22;100.00;101521.84;5077663;27;45445;-81
2024/02/13 02:18:56;;;;;;;;;0.00;0.00;;;;;7.23;100.00;101523.59;5075035;28;66518;-81
2024/02/13 02:21:22;;;;;;;;;0.00;0.00;;;;;7.22;100.00;101524.44;5075477;27;46172;-81
2024/02/13 02:23:47;;;;;;;;;0.00;0.00;;;;;7.21;100.00;101522.72;5074325;27;73516;-80
2024/02/13 02:26:13;;;;;;;;;0.00;0.00;;;;;7.20;100.00;101528.75;5073909;28;45400;-80
2024/02/13 02:28:39;;;;;;;;;0.00;0.00;;;;;7.16;100.00;101521.00;5078642;28;45580;-80
2024/02/13 02:31:05;;;;;;;;;0.00;0.00;;;;;7.14;100.00;101517.53;5077826;28;46472;-80
2024/02/13 02:33:30;;;;;;;;;0.00;0.00;;;;;7.14;100.00;101514.97;5079152;27;45429;-80
2024/02/13 02:35:55;;;;;;;;;0.00;0.00;;;;;7.12;100.00;101516.69;5077746;28;45394;-81
2024/02/13 02:38:21;;;;;;;;;0.00;0.00;;;;;7.09;100.00;101527.03;5078203;28;70218;-80
2024/02/13 02:40:47;;;;;;;;;0.00;0.00;;;;;7.10;100.00;101528.78;5078389;28;49828;-81
2024/02/13 02:43:13;;;;;;;;;0.00;0.00;;;;;7.10;100.00;101527.94;5078873;27;45405;-80
2024/02/13 02:45:38;;;;;;;;;0.00;0.00;;;;;7.10;100.00;101539.13;5078749;28;45350;-80
2024/02/13 02:48:04;;;;;;;;;0.00;0.00;;;;;7.09;100.00;101542.56;5059504;28;70366;-81
2024/02/13 02:50:29;;;;;;;;;0.00;0.00;;;;;7.10;100.00;101536.53;5078454;27;45346;-81
2024/02/13 02:52:54;;;;;;;;;0.00;0.00;;;;;7.11;100.00;101527.94;5077501;27;71818;-81
2024/02/13 02:55:21;;;;;;;;;0.00;0.00;;;;;7.14;100.00;101534.81;5076897;28;45488;-79
2024/02/13 02:57:47;;;;;;;;;0.00;0.00;;;;;7.15;100.00;101532.22;5077690;28;45355;-79
2024/02/13 03:00:14;;;;;;;;;0.00;0.00;;;;;7.20;100.00;101532.19;5078351;28;46555;-81
2024/02/13 03:02:40;;;;;;;;;0.00;0.00;;;;;7.21;100.00;101528.75;5078378;28;45323;-78
2024/02/13 03:05:07;;;;;;;;;0.00;0.00;;;;;7.24;100.00;101533.91;5078423;27;45267;-79
2024/02/13 03:07:33;;;;;;;;;0.00;0.00;;;;;7.26;100.00;101523.56;5078233;28;45222;-79
2024/02/13 03:09:59;;;;;;;;;0.00;0.00;;;;;7.29;100.00;101528.75;5076969;28;45620;-79
2024/02/13 03:12:24;;;;;;;;;0.00;0.00;;;;;7.34;100.00;101527.84;5078127;27;45287;-79
2024/02/13 03:14:50;;;;;;;;;0.00;0.00;;;;;7.39;100.00;101517.47;5078339;27;45358;-79
2024/02/13 03:17:21;;;;;;;;;0.00;0.00;;;;;7.47;100.00;101518.31;5078449;27;45411;-81
2024/02/13 03:19:46;;;;;;;;;0.00;0.00;;;;;7.51;100.00;101520.03;5077031;28;46286;-80
2024/02/13 03:22:12;;;;;;;;;0.00;0.00;;;;;7.57;100.00;101513.97;5077738;28;45549;-79
2024/02/13 03:24:38;;;;;;;;;0.00;0.00;;;;;7.61;100.00;101507.03;5076408;27;45240;-80
2024/02/13 03:27:03;;;;;;;;;0.00;0.00;;;;;7.64;100.00;101507.88;5075856;28;70068;-80
2024/02/13 03:29:28;;;;;;;;;0.00;0.00;;;;;7.68;100.00;101506.16;5077835;28;47282;-80
2024/02/13 03:31:54;;;;;;;;;0.00;0.00;;;;;7.73;100.00;101507.00;5075762;28;73062;-79
2024/02/13 03:34:20;;;;;;;;;0.00;0.00;;;;;7.79;100.00;101511.28;5077975;28;45398;-80
2024/02/13 03:36:45;;;;;;;;;0.00;0.00;;;;;7.83;100.00;101511.25;5077604;27;45395;-79
2024/02/13 03:39:11;;;;;;;;;0.00;0.00;;;;;7.91;100.00;101506.00;5077036;28;60363;-79
2024/02/13 03:41:45;;;;;;;;;0.00;0.00;;;;;7.97;100.00;101518.06;5076628;28;45442;-80
2024/02/13 03:44:11;;;;;;;;;0.00;0.00;;;;;7.99;100.00;101513.78;5076760;28;45427;-79
2024/02/13 03:46:40;;;;;;;;;0.00;0.00;;;;;8.04;100.00;101512.00;5077780;27;45435;-82
2024/02/13 03:49:08;;;;;;;;;0.00;0.00;;;;;8.08;100.00;101511.97;5077517;28;45511;-81
2024/02/13 03:51:38;;;;;;;;;0.00;0.00;;;;;8.12;100.00;101513.69;5078538;28;45443;-81
2024/02/13 03:54:07;;;;;;;;;0.00;0.00;;;;;8.12;100.00;101502.44;5059981;28;45377;-81
2024/02/13 03:56:33;;;;;;;;;0.00;0.00;;;;;8.17;100.00;101505.00;5077806;28;45286;-81
2024/02/13 03:58:58;;;;;;;;;0.00;0.00;;;;;8.21;100.00;101501.50;5077588;27;45588;-81
2024/02/13 04:01:24;;;;;;;;;0.00;0.00;;;;;8.23;100.00;101498.06;5077570;27;45483;-81
2024/02/13 04:03:49;;;;;;;;;0.00;0.00;;;;;8.28;100.00;101500.59;5077756;28;45500;-81
2024/02/13 04:06:15;;;;;;;;;0.00;0.00;;;;;8.33;100.00;101489.31;5076100;27;69396;-81
2024/02/13 04:08:44;;;;;;;;;0.00;0.00;;;;;8.40;100.00;101497.91;5075901;28;47139;-81
2024/02/13 04:11:09;;;;;;;;;0.00;0.00;;;;;8.43;100.00;101497.94;5077395;27;45381;-81
2024/02/13 04:13:35;;;;;;;;;0.00;0.00;;;;;8.46;100.00;101497.03;5077356;28;45509;-81
2024/02/13 04:16:00;;;;;;;;;0.00;0.00;;;;;8.48;100.00;101498.75;5076392;27;70468;-81
2024/02/13 04:18:25;;;;;;;;;0.00;0.00;;;;;8.53;100.00;101509.09;5076509;28;73136;-80
2024/02/13 04:20:51;;;;;;;;;0.00;0.00;;;;;8.56;100.00;101493.47;5075992;28;69953;-80
2024/02/13 04:23:16;;;;;;;;;0.00;0.00;;;;;8.60;100.00;101503.00;5074887;28;69268;-80
2024/02/13 04:25:42;;;;;;;;;0.00;0.00;;;;;8.62;100.00;101497.78;5075495;27;45585;-80
2024/02/13 04:28:07;;;;;;;;;0.00;0.00;;;;;8.67;100.00;101507.25;5077065;28;45411;-80
2024/02/13 04:30:40;;;;;;;;;0.00;0.00;;;;;8.69;100.00;101505.50;5077124;27;45361;-80
2024/02/13 04:33:08;;;;;;;;;0.00;0.00;;;;;8.71;100.00;101503.75;5077146;27;45335;-80
2024/02/13 04:35:34;;;;;;;;;0.00;0.00;;;;;8.71;100.00;101503.75;5076743;27;45374;-80
2024/02/13 04:38:00;;;;;;;;;0.00;0.00;;;;;8.74;100.00;101499.41;5076814;27;45439;-81
2024/02/13 04:40:25;;;;;;;;;0.00;0.00;;;;;8.77;100.00;101507.19;5077000;27;45286;-80
2024/02/13 04:42:51;;;;;;;;;0.00;0.00;;;;;8.78;100.00;101509.72;5076968;28;45553;-80
2024/02/13 04:45:16;;;;;;;;;0.00;0.00;;;;;8.79;100.00;101514.06;5074612;28;66196;-80
2024/02/13 04:47:41;;;;;;;;;0.00;0.00;;;;;8.80;100.00;101518.38;5076323;28;60081;-81
2024/02/13 04:50:07;;;;;;;;;0.00;0.00;;;;;8.83;100.00;101518.34;5075638;27;45377;-79
2024/02/13 04:52:34;;;;;;;;;0.00;0.00;;;;;8.84;100.00;101516.59;5076930;28;45381;-78
2024/02/13 04:54:59;;;;;;;;;0.00;0.00;;;;;8.87;100.00;101522.63;5076686;28;45334;-79
2024/02/13 04:57:25;;;;;;;;;0.00;0.00;;;;;8.90;100.00;101519.16;5076441;28;45429;-79
2024/02/13 04:59:51;;;;;;;;;0.00;0.00;;;;;8.93;100.00;101515.66;5075552;28;45396;-78
2024/02/13 05:02:18;;;;;;;;;0.00;0.00;;;;;8.94;100.00;101522.59;5075622;28;45382;-79
2024/02/13 05:07:29;;;;;;;;;0.00;0.00;;;;;8.97;100.00;101526.03;5076543;28;45421;-79
2024/02/13 05:09:56;;;;;;;;;0.00;0.00;;;;;9.00;100.00;101525.13;5076392;28;45281;-79
2024/02/13 05:12:22;;;;;;;;;0.00;0.00;;;;;9.01;100.00;101519.91;5076696;28;45387;-79
2024/02/13 05:14:47;;;;;;;;;0.00;0.00;;;;;9.03;100.00;101525.94;5076309;28;45346;-79
2024/02/13 05:17:13;;;;;;;;;0.00;0.00;;;;;9.03;100.00;101528.56;5075352;28;74834;-82
2024/02/13 05:19:39;;;;;;;;;0.00;0.00;;;;;9.05;100.00;101533.72;5075872;28;45347;-81
2024/02/13 05:22:05;;;;;;;;;0.00;0.00;;;;;9.06;100.00;101536.31;5076396;28;45465;-81
2024/02/13 05:24:30;;;;;;;;;0.00;0.00;;;;;9.07;100.00;101532.84;5075887;27;45411;-79
2024/02/13 05:26:56;;;;;;;;;0.00;0.00;;;;;9.07;100.00;101526.78;5074819;28;49102;-79
2024/02/13 05:29:21;;;;;;;;;0.00;0.00;;;;;9.10;100.00;101526.72;5076832;27;73219;-79
2024/02/13 05:31:46;;;;;;;;;0.00;0.00;;;;;9.11;100.00;101518.94;5075489;27;69691;-80
2024/02/13 05:34:12;;;;;;;;;0.00;0.00;;;;;9.10;100.00;101514.63;5075089;27;70420;-80
2024/02/13 05:36:37;;;;;;;;;0.00;0.00;;;;;9.11;100.00;101520.69;5075400;27;73006;-79
2024/02/13 05:39:03;;;;;;;;;0.00;0.00;;;;;9.11;100.00;101521.53;5075186;27;73322;-80
2024/02/13 05:41:28;;;;;;;;;0.00;0.00;;;;;9.14;100.00;101522.38;5076302;27;45374;-79
2024/02/13 05:43:54;;;;;;;;;0.00;0.00;;;;;9.13;100.00;101524.13;5075921;27;56851;-80
2024/02/13 05:46:19;;;;;;;;;0.00;0.00;;;;;9.13;100.00;101520.66;5074848;27;73837;-80
2024/02/13 05:48:45;;;;;;;;;0.00;0.00;;;;;9.11;100.00;101521.53;5075749;28;45324;-80
2024/02/13 05:51:11;;;;;;;;;0.00;0.00;;;;;9.13;100.00;101520.66;5074785;28;45352;-80
2024/02/13 05:53:37;;;;;;;;;0.00;0.00;;;;;9.13;100.00;101525.88;5076018;28;45510;-80
2024/02/13 05:56:03;;;;;;;;;0.00;0.00;;;;;9.11;100.00;101516.34;5075949;27;46067;-81
2024/02/13 05:58:28;;;;;;;;;0.00;0.00;;;;;9.14;100.00;101530.16;5075930;28;45389;-80
2024/02/13 06:00:57;;;;;;;;;0.00;0.00;;;;;9.13;100.00;101518.06;5075650;27;69330;-81
2024/02/13 06:03:22;;;;;;;;;0.00;0.00;;;;;9.11;100.00;101523.28;5077947;28;45422;-80
2024/02/13 06:05:48;;;;;;;;;0.00;0.00;;;;;9.10;100.00;101511.16;5079414;28;46122;-80
2024/02/13 06:08:14;;;;;;;;;0.00;0.00;;;;;9.11;100.00;101520.69;5079612;28;45304;-80
2024/02/13 06:10:39;;;;;;;;;0.00;0.00;;;;;9.07;100.00;101512.06;5079400;28;45281;-80
2024/02/13 06:13:05;;;;;;;;;0.00;0.00;;;;;9.04;100.00;101516.41;5079386;28;45225;-80
2024/02/13 06:15:30;;;;;;;;;0.00;0.00;;;;;8.99;100.00;101518.19;5078203;28;72663;-80
2024/02/13 06:17:55;;;;;;;;;0.00;0.00;;;;;8.95;100.00;101519.09;5077937;28;73175;-79
2024/02/13 06:20:21;;;;;;;;;0.00;0.00;;;;;8.93;100.00;101513.91;5078320;28;70448;-79
2024/02/13 06:22:46;;;;;;;;;0.00;0.00;;;;;8.90;100.00;101509.63;5077916;27;71295;-79
2024/02/13 06:25:12;;;;;;;;;0.00;0.00;;;;;8.84;100.00;101522.69;5093435;27;74286;-79
2024/02/13 06:27:38;;;;;;;;;0.00;0.00;;;;;8.83;100.00;101530.47;5099510;27;45394;-79
2024/02/13 06:30:04;;;;;;;;;0.00;0.00;;;;;8.81;100.00;101529.63;5098548;27;68187;-79
2024/02/13 06:32:30;;;;;;;;;0.00;0.00;;;;;8.76;100.00;101531.41;5099127;27;45478;-79
2024/02/13 06:34:55;;;;;;;;;0.00;0.00;;;;;8.71;100.00;101534.91;5099292;27;46290;-79
2024/02/13 06:37:21;;;;;;;;;0.00;0.00;;;;;8.65;100.00;101542.72;5098382;27;73186;-79
2024/02/13 06:39:48;;;;;;;;;0.00;0.00;;;;;8.61;100.00;101543.63;5098336;27;45213;-80
2024/02/13 06:42:13;;;;;;;;;0.00;0.00;;;;;8.58;100.00;101543.66;5081160;27;45513;-79
2024/02/13 06:44:39;;;;;;;;;0.00;0.00;;;;;8.53;100.00;101535.06;5099034;27;46032;-80
2024/02/13 06:47:06;;;;;;;;;0.00;0.00;;;;;8.48;100.00;101539.41;5098235;27;65224;-79
2024/02/13 06:49:33;;;;;;;;;0.00;0.00;;;;;8.45;100.00;101549.78;5092896;27;45415;-79
2024/02/13 06:51:58;;;;;;;;;0.00;0.00;;;;;8.44;100.00;101551.53;5078865;28;45423;-79
2024/02/13 06:54:24;;;;;;;;;0.00;0.00;;;;;8.45;100.00;101552.38;5078630;28;46104;-79
2024/02/13 06:56:50;;;;;;;;;0.00;0.00;;;;;8.47;100.00;101553.28;5077340;28;45402;-80
2024/02/13 06:59:16;;;;;;;;;0.00;0.00;;;;;8.49;100.00;101556.72;5078549;28;45304;-79
2024/02/13 07:01:41;;;;;;;;;0.00;0.00;;;;;8.47;100.00;101554.13;5078291;28;45465;-79
2024/02/13 07:04:06;;;;;;;;;0.00;0.00;;;;;8.47;100.00;101553.28;5078389;27;45582;-79
2024/02/13 07:06:32;;;;;;;;;0.00;0.00;;;;;8.52;100.00;101556.66;5081674;28;45378;-79
2024/02/13 07:08:57;;;;;;;;;0.00;0.00;;;;;8.53;100.00;101555.81;5078842;28;45383;-79
2024/02/13 07:11:23;;;;;;;;;0.00;0.00;;;;;8.60;100.00;101564.38;5078618;28;45297;-79
2024/02/13 07:13:48;;;;;;;;;0.00;0.00;;;;;8.68;100.00;101568.66;5076772;27;75406;-80
2024/02/13 07:16:13;;;;;;;;;0.00;0.00;;;;;8.83;100.00;101566.81;5076989;27;72801;-79
2024/02/13 07:18:39;;;;;;;;;0.00;0.00;;;;;8.93;100.00;101567.59;5076206;28;69090;-81
2024/02/13 07:21:06;;;;;;;;;0.00;0.00;;;;;9.00;100.00;101566.66;5078470;28;45383;-80
2024/02/13 07:23:33;;;;;;;;;0.00;0.00;;;;;9.09;100.00;101572.63;5078012;27;46346;-80
2024/02/13 07:25:59;;;;;;;;;0.00;0.00;;;;;9.14;100.00;101577.81;5078200;28;45403;-81
2024/02/13 07:28:24;;;;;;;;;0.00;0.00;;;;;9.23;100.00;101567.31;5078471;28;45341;-80
2024/02/13 07:30:50;;;;;;;;;0.00;0.00;;;;;9.28;100.00;101581.09;5076968;27;70340;-80
2024/02/13 07:33:16;;;;;;;;;100.00;66.00;;;;;9.30;100.00;101570.69;5076758;27;74926;-80
2024/02/13 07:35:41;;;;;;;;;0.00;0.00;;;;;9.37;100.00;101580.16;5078028;27;45366;-80
2024/02/13 07:38:06;;;;;;;;;0.00;0.00;;;;;9.43;100.00;101580.09;5077697;28;56633;-81
2024/02/13 07:40:32;;;;;;;;;0.00;0.00;;;;;9.50;100.00;101583.50;5078243;27;45322;-81
2024/02/13 07:42:57;;;;;;;;;0.00;0.00;;;;;9.57;100.00;101586.91;5077512;28;46200;-83
2024/02/13 07:45:24;;;;;;;;;0.00;0.00;;;;;9.64;100.00;101591.16;5076913;27;73004;-81
2024/02/13 07:47:51;;;;;;;;;0.00;0.00;;;;;9.68;100.00;101593.69;5078014;27;45286;-80
2024/02/13 07:50:16;;;;;;;;;0.00;0.00;;;;;9.73;100.00;101593.59;5077583;28;45513;-80
2024/02/13 07:52:42;;;;;;;;;0.00;0.00;;;;;9.80;100.00;101602.22;5077065;28;64830;-80
2024/02/13 07:55:08;;;;;;;;;0.00;0.00;;;;;9.89;100.00;101608.16;5077539;27;45396;-80
2024/02/13 07:57:35;;;;;;;;;0.00;0.00;;;;;9.97;100.00;101609.81;5077518;27;45381;-80
2024/02/13 08:00:00;;;;;;;;;0.00;0.00;;;;;10.06;100.00;101612.28;5077703;27;45379;-80
2024/02/13 08:02:25;;;;;;;;;0.00;0.00;;;;;10.08;100.00;101601.00;5076221;28;45436;-80
2024/02/13 08:04:54;;;;;;;;;0.00;0.00;;;;;10.17;100.00;101604.34;5077462;27;45430;-80
2024/02/13 08:07:19;;;;;;;;;0.00;0.00;;;;;10.21;100.00;101611.22;5076627;28;69382;-80
2024/02/13 08:09:45;;;;;;;;;0.00;0.00;;;;;10.32;100.00;101613.72;5077680;28;45293;-81
2024/02/13 08:12:12;;;;;;;;;0.00;0.00;;;;;10.34;100.00;101611.97;5076999;28;45415;-80
2024/02/13 08:14:38;;;;;;;;;0.00;0.00;;;;;10.39;100.00;101615.38;5076192;28;45449;-80
2024/02/13 08:17:06;;;;;;;;;0.00;0.00;;;;;10.45;100.00;101623.94;5076371;28;45363;-81
2024/02/13 08:19:33;;;;;;;;;0.00;0.00;;;;;10.52;100.00;101627.31;5076250;28;45340;-80
2024/02/13 08:22:00;;;;;;;;;0.00;0.00;;;;;10.61;100.00;101628.94;5077295;28;45361;-81
2024/02/13 08:24:25;;;;;;;;;0.00;0.00;;;;;10.70;100.00;101633.13;5075804;27;45366;-82
2024/02/13 08:26:52;;;;;;;;;0.00;0.00;;;;;10.76;100.00;101633.91;5076774;28;45399;-79
2024/02/13 08:29:18;;;;;;;;;0.00;0.00;;;;;10.84;100.00;101636.38;5077294;27;45355;-79
2024/02/13 08:31:44;;;;;;;;;0.00;0.00;;;;;10.88;100.00;101630.22;5077149;28;46063;-81
2024/02/13 08:34:09;;;;;;;;;0.00;0.00;;;;;10.97;100.00;101637.06;5076957;27;45518;-79
2024/02/13 08:36:37;;;;;;;;;0.00;0.00;;;;;10.98;100.00;101634.44;5076199;28;45458;-79
2024/02/13 08:39:02;;;;;;;;;0.00;0.00;;;;;11.09;100.00;101630.75;5077142;27;45315;-81
2024/02/13 08:41:28;;;;;;;;;0.00;0.00;;;;;11.13;100.00;101630.69;5075496;28;45700;-79
2024/02/13 08:43:53;;;;;;;;;0.00;0.00;;;;;11.21;100.00;101635.78;5075968;27;72084;-81
2024/02/13 08:46:22;;;;;;;;;0.00;0.00;;;;;11.28;100.00;101628.72;5076894;27;45464;-81
2024/02/13 08:48:47;;;;;;;;;0.00;0.00;;;;;11.36;100.00;101627.69;5076943;27;45473;-81
2024/02/13 08:51:13;;;;;;;;;0.00;0.00;;;;;11.45;100.00;101626.66;5076751;28;45403;-81
2024/02/13 08:53:39;;;;;;;;;0.00;0.00;;;;;11.54;100.00;101636.06;5075698;28;73278;-82
2024/02/13 08:56:04;;;;;;;;;0.00;0.00;;;;;11.59;100.00;101629.03;5076451;28;45432;-81
2024/02/13 08:58:29;;;;;;;;;0.00;0.00;;;;;11.65;100.00;101628.91;5076735;28;45237;-81
2024/02/13 09:00:55;;;;;;;;;0.00;0.00;;;;;11.70;100.00;101620.97;5074301;28;74947;-81
2024/02/13 09:03:20;;;;;;;;;0.00;0.00;;;;;11.72;100.00;101624.41;5075260;28;45442;-81
2024/02/13 09:05:46;;;;;;;;;0.00;0.00;;;;;11.76;100.00;101620.88;5076345;27;53274;-82
2024/02/13 09:08:11;;;;;;;;;0.00;0.00;;;;;11.79;100.00;101618.19;5074489;28;70526;-81
2024/02/13 09:10:36;;;;;;;;;0.00;0.00;;;;;11.85;100.00;101623.31;5074944;28;76366;-81
2024/02/13 09:13:02;;;;;;;;;0.00;0.00;;;;;11.93;100.00;101625.78;5075357;28;72898;-81
2024/02/13 09:15:29;;;;;;;;;0.00;0.00;;;;;12.05;100.00;101622.06;5076493;28;45286;-81
2024/02/13 09:17:54;;;;;;;;;0.00;0.00;;;;;12.15;100.00;101632.28;5076393;28;45545;-82
2024/02/13 09:20:21;;;;;;;;;0.00;0.00;;;;;12.25;100.00;101630.31;5075426;27;75466;-79
2024/02/13 09:22:47;;;;;;;;;0.00;0.00;;;;;12.31;100.00;101624.09;5076113;28;45443;-80
2024/02/13 09:25:13;;;;;;;;;2.25;2.25;;;;;12.40;100.00;101627.38;5075662;27;45421;-79
2024/02/13 09:27:40;;;;;;;;;0.00;0.00;;;;;12.50;100.00;101620.19;5076353;28;45369;-79
2024/02/13 09:30:06;;;;;;;;;0.00;0.00;;;;;12.59;100.00;101625.22;5074907;28;45436;-79
2024/02/13 09:32:35;;;;;;;;;0.00;0.00;;;;;12.61;100.00;101625.19;5076257;27;45474;-80
2024/02/13 09:35:01;;;;;;;;;0.00;0.00;;;;;12.68;100.00;101624.13;5076327;27;45290;-80
2024/02/13 09:37:26;;;;;;;;;0.00;0.00;;;;;12.75;100.00;101625.69;5075962;27;45412;-79
2024/02/13 09:39:52;;;;;;;;;0.00;0.00;;;;;12.82;100.00;101620.34;5075018;27;68688;-79
2024/02/13 09:42:17;;;;;;;;;0.00;0.00;;;;;12.94;100.00;101610.41;5075001;28;72778;-79
2024/02/13 09:44:43;;;;;;;;;0.00;0.00;;;;;13.12;100.00;101624.78;5058149;28;45445;-79
2024/02/13 09:47:09;;;;;;;;;0.00;0.00;;;;;13.27;100.00;101615.69;5076271;28;45346;-81
2024/02/13 09:49:35;;;;;;;;;0.00;0.00;;;;;13.39;100.00;101618.91;5074564;28;46564;-80
2024/02/13 09:52:09;;;;;;;;;0.00;0.00;;;;;13.44;100.00;101617.03;5073966;28;65846;-81
2024/02/13 09:54:35;;;;;;;;;0.00;0.00;;;;;13.47;100.00;101616.97;5074347;28;45346;-80
2024/02/13 09:57:01;;;;;;;;;0.00;0.00;;;;;13.43;100.00;101616.19;5074882;28;45317;-81
2024/02/13 09:59:26;;;;;;;;;0.00;0.00;;;;;13.41;100.00;101619.72;5073383;28;77774;-81
2024/02/13 10:01:52;;;;;;;;;0.00;0.00;;;;;13.42;100.00;101624.94;5074844;28;74322;-80
2024/02/13 10:04:18;;;;;;;;;0.00;0.00;;;;;13.46;100.00;101626.56;5075836;28;45367;-80
2024/02/13 10:06:44;;;;;;;;;0.00;0.00;;;;;13.48;100.00;101629.13;5075690;28;45518;-81
2024/02/13 10:09:11;;;;;;;;;0.00;0.00;;;;;13.62;100.00;101627.00;5075351;28;45657;-81
2024/02/13 10:11:36;;;;;;;;;0.00;0.00;;;;;13.72;100.00;101628.50;5074727;28;45658;-80
2024/02/13 10:14:03;;;;;;;;;0.00;0.00;;;;;13.83;100.00;101630.78;5074989;28;61107;-80
2024/02/13 10:16:28;;;;;;;;;0.00;0.00;;;;;13.88;100.00;101644.59;5075839;28;45387;-80
2024/02/13 10:18:57;;;;;;;;;0.00;0.00;;;;;13.88;100.00;101630.66;5074535;28;46229;-80
2024/02/13 10:21:25;;;;;;;;;0.00;0.00;;;;;13.90;100.00;101634.94;5074465;28;45276;-80
2024/02/13 10:23:53;;;;;;;;;0.00;0.00;;;;;13.93;100.00;101639.25;5073941;27;45445;-79
2024/02/13 10:26:23;;;;;;;;;0.00;0.00;;;;;13.95;100.00;101632.22;5075528;28;45495;-79
2024/02/13 10:28:54;;;;;;;;;0.00;0.00;;;;;13.98;100.00;101628.63;5074339;28;46343;-80
2024/02/13 10:31:24;;;;;;;;;0.00;0.00;;;;;13.99;100.00;101632.97;5075470;27;45414;-80
2024/02/13 10:33:50;;;;;;;;;0.00;0.00;;;;;13.96;100.00;101625.19;5075660;27;45677;-79
2024/02/13 10:36:15;;;;;;;;;0.00;0.00;;;;;13.99;100.00;101625.13;5074529;27;71280;-80
2024/02/13 10:38:43;;;;;;;;;0.00;0.00;;;;;14.12;100.00;101624.72;5073521;28;52713;-79
2024/02/13 10:41:19;;;;;;;;;0.00;0.00;;;;;14.10;100.00;101631.75;5074152;28;45423;-80
2024/02/13 10:43:46;;;;;;;;;0.00;0.00;;;;;14.39;100.00;101623.91;5074454;28;45448;-80
2024/02/13 10:46:12;;;;;;;;;0.00;0.00;;;;;14.55;100.00;101625.16;5075358;28;46432;-80
2024/02/13 10:48:42;;;;;;;;;0.00;0.00;;;;;14.63;100.00;101628.41;5074439;28;77373;-81
2024/02/13 10:51:08;;;;;;;;;0.00;0.00;;;;;14.76;100.00;101621.03;5078070;28;45417;-81
2024/02/13 10:53:34;;;;;;;;;0.00;0.00;;;;;14.91;100.00;101622.28;5079847;28;45480;-81
2024/02/13 10:56:02;;;;;;;;;0.00;0.00;;;;;14.97;100.00;101616.88;5078927;28;45409;-81
2024/02/13 10:58:29;;;;;;;;;0.00;0.00;;;;;14.95;100.00;101616.06;5078762;28;46329;-80
2024/02/13 11:00:56;;;;;;;;;0.00;0.00;;;;;14.86;100.00;101619.84;5077500;28;45367;-80
2024/02/13 11:03:22;;;;;;;;;1.00;1.00;;;;;14.81;100.00;101611.25;5077611;28;45381;-81
2024/02/13 11:05:48;;;;;;;;;0.00;0.00;;;;;14.80;100.00;101616.53;5077341;28;45364;-80
2024/02/13 11:08:13;;;;;;;;;0.00;0.00;;;;;14.81;100.00;101616.50;5078221;28;45598;-81
2024/02/13 11:10:41;;;;;;;;;0.00;0.00;;;;;14.89;100.00;101611.88;5078484;28;45333;-81
2024/02/13 11:13:09;;;;;;;;;0.00;0.00;;;;;15.03;100.00;101608.78;5078644;27;45416;-80
2024/02/13 11:15:39;;;;;;;;;0.00;0.00;;;;;15.16;100.00;101614.47;5078638;27;45506;-81
2024/02/13 11:18:11;;;;;;;;;0.00;0.00;;;;;15.32;100.00;101609.53;5078239;28;47031;-80